Time;durP1;ratioP1;P1;durP2;ratioP2;P2;SDS_P1;SDS_P2;PMS_P1;PMS_P2;Temp;Humidity;BMP_temperature;BMP_pressure;BME280_temperature;BME280_humidity;BME280_pressure;Samples;Min_cycle;Max_cycle;Signal;HPM_P1;HPM_P2
2021/08/23 00:01:46;;;;;;;6.90;4.60;;;;;;;16.19;nan;100869.28;5048321;28;20025;-78
2021/08/23 00:04:12;;;;;;;6.28;4.25;;;;;;;16.21;nan;100860.09;5031282;28;20140;-78
2021/08/23 00:06:37;;;;;;;6.15;4.57;;;;;;;16.12;nan;100862.00;5025437;28;20036;-79
2021/08/23 00:09:02;;;;;;;6.30;4.20;;;;;;;16.16;nan;100858.97;5028207;28;20037;-78
2021/08/23 00:11:28;;;;;;;6.75;4.38;;;;;;;16.22;nan;100859.06;5032262;28;20447;-78
2021/08/23 00:13:53;;;;;;;6.53;4.13;;;;;;;16.22;nan;100861.75;5046696;28;20112;-78
2021/08/23 00:16:19;;;;;;;8.38;4.70;;;;;;;16.24;nan;100861.56;5049430;28;20092;-77
2021/08/23 00:18:47;;;;;;;7.43;4.50;;;;;;;16.26;nan;100857.72;5049848;28;20041;-78
2021/08/23 00:21:20;;;;;;;8.75;4.40;;;;;;;16.27;nan;100862.03;5029252;28;20394;-79
2021/08/23 00:23:50;;;;;;;7.55;4.70;;;;;;;16.21;nan;100857.44;5045455;28;20037;-77
2021/08/23 00:26:15;;;;;;;5.85;4.20;;;;;;;16.15;nan;100860.81;5049567;28;20080;-78
2021/08/23 00:28:41;;;;;;;5.72;3.97;;;;;;;16.13;nan;100858.31;5048897;28;20069;-79
2021/08/23 00:31:06;;;;;;;5.65;3.80;;;;;;;16.15;nan;100860.81;5048545;28;20040;-78
2021/08/23 00:33:31;;;;;;;7.03;4.10;;;;;;;16.19;nan;100853.28;5050769;28;20161;-78
2021/08/23 00:35:57;;;;;;;5.53;4.03;;;;;;;16.11;nan;100847.00;5050281;28;20036;-79
2021/08/23 00:38:22;;;;;;;4.80;3.78;;;;;;;16.08;nan;100852.69;5045817;28;20045;-79
2021/08/23 00:40:47;;;;;;;4.40;3.00;;;;;;;16.06;nan;100845.88;5054109;28;20041;-78
2021/08/23 00:43:12;;;;;;;8.07;4.38;;;;;;;16.10;nan;100860.53;5051043;28;20051;-78
2021/08/23 00:45:38;;;;;;;5.00;3.47;;;;;;;16.07;nan;100858.22;5053872;28;20087;-78
2021/08/23 00:48:04;;;;;;;5.68;3.80;;;;;;;16.12;nan;100858.50;5052087;28;20090;-78
2021/08/23 00:50:29;;;;;;;6.50;3.95;;;;;;;16.07;nan;100856.38;5046229;28;20047;-78
2021/08/23 00:52:56;;;;;;;5.97;4.20;;;;;;;16.09;nan;100864.22;5047709;28;20037;-77
2021/08/23 00:55:22;;;;;;;6.28;4.30;;;;;;;16.10;nan;100856.00;5050649;28;20095;-78
2021/08/23 00:57:48;;;;;;;7.65;4.55;;;;;;;16.17;nan;100858.78;5048072;28;20033;-78
2021/08/23 01:00:14;;;;;;;5.78;3.92;;;;;;;16.18;nan;100860.44;5048327;28;20067;-77
2021/08/23 01:03:00;;;;;;;6.65;4.20;;;;;;;16.11;nan;100868.34;5025080;28;20045;-77
2021/08/23 01:05:30;;;;;;;5.25;3.58;;;;;;;16.09;nan;100867.69;5047811;28;20041;-77
2021/08/23 01:07:59;;;;;;;5.72;3.70;;;;;;;16.09;nan;100873.03;5049971;28;20040;-77
2021/08/23 01:10:33;;;;;;;6.97;3.92;;;;;;;16.10;nan;100871.19;5045646;28;20921;-77
2021/08/23 01:13:00;;;;;;;5.60;3.88;;;;;;;16.09;nan;100873.03;5045244;28;20032;-77
2021/08/23 01:15:25;;;;;;;4.78;3.67;;;;;;;16.09;nan;100878.38;5048604;28;20155;-77
2021/08/23 01:17:51;;;;;;;6.35;3.83;;;;;;;16.11;nan;100879.03;5048719;28;20614;-77
2021/08/23 01:20:17;;;;;;;8.40;3.55;;;;;;;16.15;nan;100876.81;5035476;28;20040;-77
2021/08/23 01:22:47;;;;;;;4.95;4.07;;;;;;;16.15;nan;100879.47;5053814;28;20051;-77
2021/08/23 01:25:15;;;;;;;4.70;3.58;;;;;;;16.17;nan;100880.13;5034540;28;20032;-77
2021/08/23 01:27:58;;;;;;;6.90;4.47;;;;;;;16.11;nan;100875.50;5033699;28;20045;-77
2021/08/23 01:30:24;;;;;;;6.68;3.95;;;;;;;16.11;nan;100873.69;5047377;28;20104;-77
2021/08/23 01:32:50;;;;;;;6.75;3.58;;;;;;;16.12;nan;100883.34;5050761;28;20632;-77
2021/08/23 01:35:16;;;;;;;5.55;4.00;;;;;;;16.12;nan;100880.69;5053365;28;20059;-79
2021/08/23 01:37:41;;;;;;;6.30;3.60;;;;;;;16.18;nan;100873.78;5034761;28;20033;-78
2021/08/23 01:40:07;;;;;;;5.30;3.78;;;;;;;16.20;nan;100877.09;5049418;28;20045;-77
2021/08/23 01:42:33;;;;;;;6.70;4.30;;;;;;;16.26;nan;100868.38;5052728;28;20051;-77
2021/08/23 01:44:59;;;;;;;6.65;4.00;;;;;;;16.26;nan;100867.56;5052006;28;20041;-77
2021/08/23 01:47:24;;;;;;;5.47;3.35;;;;;;;16.23;nan;100873.25;5048994;28;20025;-77
2021/08/23 01:49:50;;;;;;;6.18;3.70;;;;;;;16.27;nan;100874.56;5039122;28;20041;-77
2021/08/23 01:52:15;;;;;;;6.95;3.88;;;;;;;16.22;nan;100874.25;5045855;28;20671;-77
2021/08/23 01:54:44;;;;;;;4.53;3.22;;;;;;;16.17;nan;100866.78;5033592;28;20040;-77
2021/08/23 01:57:14;;;;;;;5.10;3.75;;;;;;;16.21;nan;100873.44;5052524;28;20028;-76
2021/08/23 01:59:40;;;;;;;5.63;3.63;;;;;;;16.28;nan;100860.19;5025433;28;20038;-77
2021/08/23 02:02:05;;;;;;;4.95;3.22;;;;;;;16.19;nan;100863.97;5049596;28;20032;-78
2021/08/23 02:04:31;;;;;;;4.13;3.17;;;;;;;16.16;nan;100857.16;5050934;28;20041;-77
2021/08/23 02:06:56;;;;;;;5.95;3.20;;;;;;;16.15;nan;100860.81;5051709;28;20518;-77
2021/08/23 02:09:21;;;;;;;6.03;4.15;;;;;;;16.23;nan;100858.09;5032661;28;20064;-77
2021/08/23 02:11:46;;;;;;;6.15;4.28;;;;;;;16.22;nan;100852.91;5051374;28;20037;-77
2021/08/23 02:14:12;;;;;;;5.45;3.40;;;;;;;16.14;nan;100851.97;5050113;28;20503;-77
2021/08/23 02:16:39;;;;;;;4.28;3.20;;;;;;;16.11;nan;100857.69;5050305;28;20325;-77
2021/08/23 02:19:05;;;;;;;7.35;3.58;;;;;;;16.10;nan;100868.53;5049729;28;20174;-77
2021/08/23 02:21:30;;;;;;;4.35;3.30;;;;;;;16.04;nan;100867.41;5053603;28;20025;-77
2021/08/23 02:23:56;;;;;;;5.07;3.50;;;;;;;16.04;nan;100875.41;5052406;28;20150;-78
2021/08/23 02:26:21;;;;;;;4.55;3.13;;;;;;;16.08;nan;100879.38;5028943;28;20051;-77
2021/08/23 02:28:47;;;;;;;4.50;2.95;;;;;;;16.07;nan;100872.38;5047455;28;20184;-77
2021/08/23 02:31:12;;;;;;;5.50;3.60;;;;;;;16.12;nan;100872.66;5046380;28;20032;-77
2021/08/23 02:33:37;;;;;;;4.78;3.22;;;;;;;16.10;nan;100880.03;5050999;28;20315;-77
2021/08/23 02:36:03;;;;;;;;;;;;;;;16.18;nan;100875.63;5047687;28;20033;-77
2021/08/23 02:38:28;;;;;;;4.28;2.90;;;;;;;16.21;nan;100875.25;5045181;28;20899;-77
2021/08/23 02:40:53;;;;;;;6.75;3.20;;;;;;;16.19;nan;100877.31;5050985;28;20067;-77
2021/08/23 02:43:19;;;;;;;3.88;2.60;;;;;;;16.16;nan;100878.50;5048942;28;20041;-77
2021/08/23 02:45:44;;;;;;;5.38;2.83;;;;;;;16.18;nan;100881.78;5050888;28;20588;-76
2021/08/23 02:48:09;;;;;;;4.95;2.83;;;;;;;16.21;nan;100883.25;5045916;28;20078;-77
2021/08/23 02:50:34;;;;;;;3.72;2.78;;;;;;;16.19;nan;100888.78;5048024;28;20029;-77
2021/08/23 02:53:00;;;;;;;4.78;3.25;;;;;;;16.24;nan;100886.41;5045147;28;20074;-77
2021/08/23 02:55:25;;;;;;;3.58;2.75;;;;;;;16.20;nan;100890.44;5075827;22;20045;-81
2021/08/23 02:57:50;;;;;;;5.97;3.50;;;;;;;16.26;nan;100889.72;5031343;28;20408;-80
2021/08/23 03:00:16;;;;;;;5.25;3.40;;;;;;;16.25;nan;100882.72;5035464;28;20036;-80
2021/08/23 03:02:41;;;;;;;4.22;3.03;;;;;;;16.26;nan;100878.25;5052838;28;20501;-80
2021/08/23 03:05:07;;;;;;;4.30;3.20;;;;;;;16.21;nan;100881.44;5041174;28;20029;-80
2021/08/23 03:07:32;;;;;;;4.68;3.50;;;;;;;16.26;nan;100889.72;5071088;28;20033;-80
2021/08/23 03:09:57;;;;;;;5.03;3.00;;;;;;;16.23;nan;100887.44;5056215;28;20060;-80
2021/08/23 03:12:24;;;;;;;7.05;3.53;;;;;;;16.29;nan;100881.38;5053569;28;20458;-80
2021/08/23 03:14:49;;;;;;;6.55;4.00;;;;;;;16.26;nan;100878.25;5066818;28;20037;-80
2021/08/23 03:17:14;;;;;;;6.03;3.95;;;;;;;16.24;nan;100883.75;5055611;28;20040;-80
2021/08/23 03:19:40;;;;;;;5.47;3.40;;;;;;;16.15;nan;100879.47;5074008;28;20086;-80
2021/08/23 03:22:05;;;;;;;4.97;3.38;;;;;;;16.09;nan;100870.38;5054809;28;20141;-80
2021/08/23 03:24:31;;;;;;;5.93;3.40;;;;;;;16.04;nan;100875.41;5067369;28;20109;-80
2021/08/23 03:26:56;;;;;;;4.80;3.30;;;;;;;16.00;nan;100878.63;5069364;28;20028;-80
2021/08/23 03:29:22;;;;;;;5.03;3.38;;;;;;;16.01;nan;100877.59;5054718;28;20116;-80
2021/08/23 03:31:47;;;;;;;4.00;3.05;;;;;;;16.02;nan;100877.44;5066860;28;20350;-80
2021/08/23 03:34:13;;;;;;;4.68;2.88;;;;;;;16.05;nan;100882.41;5055521;28;20045;-80
2021/08/23 03:36:40;;;;;;;4.55;3.33;;;;;;;16.10;nan;100880.03;5073385;28;20067;-81
2021/08/23 03:39:07;;;;;;;5.32;3.85;;;;;;;16.10;nan;100874.69;5070551;28;20040;-80
2021/08/23 03:41:33;;;;;;;5.90;3.88;;;;;;;16.12;nan;100877.19;5056600;28;20035;-81
2021/08/23 03:43:59;;;;;;;5.30;3.63;;;;;;;16.11;nan;100875.50;5055260;28;20071;-80
2021/08/23 03:46:24;;;;;;;6.47;3.67;;;;;;;16.05;nan;100877.06;5069828;28;20902;-80
2021/08/23 03:48:49;;;;;;;4.95;3.40;;;;;;;16.02;nan;100873.94;5057215;28;20040;-81
2021/08/23 03:51:15;;;;;;;3.33;2.60;;;;;;;15.99;nan;100877.75;5056829;28;20040;-81
2021/08/23 03:53:40;;;;;;;5.85;3.25;;;;;;;15.98;nan;100878.78;5070692;28;20037;-80
2021/08/23 03:56:05;;;;;;;7.00;3.58;;;;;;;15.97;nan;100881.63;5072424;28;20064;-81
2021/08/23 03:58:31;;;;;;;4.25;3.00;;;;;;;15.99;nan;100879.63;5073223;28;20098;-80
2021/08/23 04:00:58;;;;;;;4.30;2.67;;;;;;;15.99;nan;100877.75;5054092;28;20040;-81
2021/08/23 04:03:24;;;;;;;4.05;2.60;;;;;;;16.00;nan;100873.28;5061794;28;20037;-80
2021/08/23 04:05:49;;;;;;;4.97;3.20;;;;;;;16.03;nan;100880.91;5071041;28;20033;-81
2021/08/23 04:08:14;;;;;;;4.50;3.40;;;;;;;16.04;nan;100882.56;5072413;28;20061;-81
2021/08/23 04:10:40;;;;;;;6.53;3.20;;;;;;;16.04;nan;100882.56;5078370;28;20115;-80
2021/08/23 04:13:05;;;;;;;6.03;3.70;;;;;;;16.05;nan;100876.25;5070228;28;20044;-80
2021/08/23 04:15:30;;;;;;;4.35;2.90;;;;;;;16.03;nan;100881.75;5070935;28;20083;-80
2021/08/23 04:17:56;;;;;;;4.90;3.33;;;;;;;16.03;nan;100878.25;5058062;28;20032;-80
2021/08/23 04:20:21;;;;;;;3.90;2.92;;;;;;;16.02;nan;100887.28;5072396;28;20097;-80
2021/08/23 04:22:46;;;;;;;4.28;3.28;;;;;;;15.98;nan;100881.47;5059183;28;20056;-80
2021/08/23 04:25:11;;;;;;;5.72;3.22;;;;;;;15.99;nan;100890.28;5059588;28;20044;-80
2021/08/23 04:27:37;;;;;;;5.07;3.70;;;;;;;15.97;nan;100889.63;5060172;28;20032;-80
2021/08/23 04:30:02;;;;;;;4.47;3.10;;;;;;;15.95;nan;100884.50;5076448;28;20424;-80
2021/08/23 04:32:28;;;;;;;4.05;3.30;;;;;;;15.97;nan;100894.97;5058548;28;20048;-80
2021/08/23 04:34:53;;;;;;;4.13;3.20;;;;;;;15.99;nan;100898.28;5069580;28;20040;-80
2021/08/23 04:37:18;;;;;;;4.15;3.00;;;;;;;16.07;nan;100898.25;5075868;28;20377;-80
2021/08/23 04:39:45;;;;;;;3.25;2.53;;;;;;;16.11;nan;100894.19;5072483;28;20045;-80
2021/08/23 04:42:10;;;;;;;3.40;2.70;;;;;;;16.17;nan;100901.47;5058927;28;20440;-80
2021/08/23 04:44:36;;;;;;;2.88;2.30;;;;;;;16.20;nan;100903.78;5059420;28;20043;-80
2021/08/23 04:47:01;;;;;;;3.45;2.40;;;;;;;16.24;nan;100902.41;5058987;28;20043;-80
2021/08/23 04:49:26;;;;;;;3.80;2.90;;;;;;;16.25;nan;100903.25;5053656;28;20037;-80
2021/08/23 04:51:52;;;;;;;4.93;2.88;;;;;;;16.30;nan;100898.19;5059070;28;20488;-80
2021/08/23 04:54:17;;;;;;;4.60;2.88;;;;;;;16.34;nan;100903.00;5070175;28;20048;-80
2021/08/23 04:56:42;;;;;;;3.80;2.75;;;;;;;16.33;nan;100900.53;5054688;28;20199;-80
2021/08/23 04:59:08;;;;;;;4.38;3.10;;;;;;;16.34;nan;100902.16;5051758;28;20041;-80
2021/08/23 05:01:33;;;;;;;3.28;2.63;;;;;;;16.38;nan;100905.31;5059437;28;20123;-80
2021/08/23 05:03:58;;;;;;;3.30;2.83;;;;;;;16.35;nan;100898.47;5059164;28;20078;-80
2021/08/23 05:06:24;;;;;;;4.32;2.60;;;;;;;16.39;nan;100909.63;5058529;28;20079;-80
2021/08/23 05:08:49;;;;;;;3.28;2.60;;;;;;;16.39;nan;100912.31;5079024;28;20440;-80
2021/08/23 05:11:14;;;;;;;3.75;3.13;;;;;;;16.38;nan;100916.81;5067264;28;20037;-80
2021/08/23 05:13:40;;;;;;;3.90;2.90;;;;;;;16.39;nan;100907.78;5066717;28;20025;-80
2021/08/23 05:16:05;;;;;;;4.40;3.10;;;;;;;16.40;nan;100905.94;5059653;28;20059;-80
2021/08/23 05:18:30;;;;;;;4.75;2.70;;;;;;;16.36;nan;100908.16;5071758;28;20311;-80
2021/08/23 05:20:58;;;;;;;4.38;3.17;;;;;;;16.35;nan;100909.16;5069847;28;20107;-80
2021/08/23 05:23:23;;;;;;;3.47;2.70;;;;;;;16.39;nan;100906.97;5058732;28;20036;-81
2021/08/23 05:25:49;;;;;;;3.13;2.45;;;;;;;16.46;nan;100907.91;5073491;28;20024;-80
2021/08/23 05:28:14;;;;;;;3.35;2.53;;;;;;;16.54;nan;100898.00;5057506;28;20488;-80
2021/08/23 05:30:39;;;;;;;4.53;3.10;;;;;;;16.62;nan;100902.41;5065206;28;20071;-81
2021/08/23 05:33:04;;;;;;;4.50;3.03;;;;;;;16.61;nan;100900.75;5057547;28;20496;-80
2021/08/23 05:35:30;;;;;;;4.50;3.30;;;;;;;16.65;nan;100893.22;5058642;28;20443;-80
2021/08/23 05:37:55;;;;;;;6.28;3.75;;;;;;;16.65;nan;100895.88;5073123;28;20120;-80
2021/08/23 05:40:23;;;;;;;5.65;3.20;;;;;;;16.75;nan;100899.91;5057126;28;20048;-80
2021/08/23 05:42:52;;;;;;;4.10;2.95;;;;;;;16.75;nan;100899.09;5074047;28;20043;-80
2021/08/23 05:45:17;;;;;;;5.03;3.45;;;;;;;16.88;nan;100903.84;5057236;28;20044;-79
2021/08/23 05:47:43;;;;;;;4.82;3.17;;;;;;;16.91;nan;100906.97;5058952;28;20044;-80
2021/08/23 05:50:08;;;;;;;3.65;2.80;;;;;;;16.98;nan;100913.25;5055602;28;20032;-80
2021/08/23 05:52:34;;;;;;;5.35;2.92;;;;;;;17.00;nan;100909.56;5077646;28;20025;-79
2021/08/23 05:54:59;;;;;;;4.72;3.00;;;;;;;17.07;nan;100915.84;5075585;28;20318;-80
2021/08/23 05:57:27;;;;;;;5.40;3.40;;;;;;;17.14;nan;100917.56;5062342;28;20116;-80
2021/08/23 05:59:53;;;;;;;4.07;2.88;;;;;;;17.09;nan;100911.97;5071119;28;20056;-80
2021/08/23 06:02:18;;;;;;;4.95;3.58;;;;;;;17.17;nan;100922.53;5059484;28;20404;-80
2021/08/23 06:04:43;;;;;;;5.20;3.20;;;;;;;17.12;nan;100921.44;5059177;28;20033;-80
2021/08/23 06:07:09;;;;;;;6.47;3.80;;;;;;;17.19;nan;100925.84;5073039;28;20456;-79
2021/08/23 06:09:35;;;;;;;4.47;3.15;;;;;;;17.11;nan;100925.13;5071651;28;20043;-80
2021/08/23 06:12:00;;;;;;;4.28;3.00;;;;;;;17.06;nan;100917.66;5057599;28;20036;-79
2021/08/23 06:14:25;;;;;;;4.93;3.13;;;;;;;16.98;nan;100921.25;5057217;28;20037;-80
2021/08/23 06:16:51;;;;;;;5.03;3.15;;;;;;;17.06;nan;100927.50;5073644;28;20182;-79
2021/08/23 06:19:17;;;;;;;6.55;3.65;;;;;;;17.11;nan;100930.47;5058474;28;20044;-80
2021/08/23 06:21:42;;;;;;;6.30;3.50;;;;;;;17.13;nan;100921.25;5076495;28;20037;-79
2021/08/23 06:24:08;;;;;;;4.88;3.50;;;;;;;17.18;nan;100921.53;5074341;28;20542;-80
2021/08/23 06:26:33;;;;;;;5.03;3.28;;;;;;;17.16;nan;100915.56;5050948;28;20066;-80
2021/08/23 06:28:58;;;;;;;5.30;3.53;;;;;;;17.29;nan;100912.22;5076268;28;20044;-80
2021/08/23 06:31:24;;;;;;;4.35;3.00;;;;;;;17.39;nan;100914.59;5057694;28;20479;-80
2021/08/23 06:33:49;;;;;;;4.75;3.05;;;;;;;17.40;nan;100916.25;5077017;28;20024;-79
2021/08/23 06:36:15;;;;;;;4.43;3.20;;;;;;;17.51;nan;100915.75;5057560;28;20040;-79
2021/08/23 06:38:40;;;;;;;6.35;3.38;;;;;;;17.56;nan;100918.69;5066845;28;20060;-79
2021/08/23 06:41:06;;;;;;;4.18;2.95;;;;;;;17.51;nan;100918.44;5075070;28;20044;-79
2021/08/23 06:43:31;;;;;;;3.47;2.45;;;;;;;17.63;nan;100918.78;5057462;28;20044;-79
2021/08/23 06:45:56;;;;;;;4.15;2.90;;;;;;;17.73;nan;100922.00;5057465;28;20056;-79
2021/08/23 06:48:21;;;;;;;3.70;2.80;;;;;;;17.82;nan;100917.38;5075597;28;20033;-79
2021/08/23 06:50:47;;;;;;;4.10;2.75;;;;;;;18.04;nan;100912.84;5067899;28;20374;-79
2021/08/23 06:53:12;;;;;;;3.92;2.58;;;;;;;18.77;nan;100915.31;5073454;28;20052;-79
2021/08/23 06:55:37;;;;;;;3.97;2.90;;;;;;;19.39;nan;100929.69;5064398;28;20029;-79
2021/08/23 06:58:03;;;;;;;6.50;2.78;;;;;;;19.76;nan;100930.25;5068937;28;20056;-80
2021/08/23 07:00:29;;;;;;;5.22;2.80;;;;;;;20.31;nan;100921.03;5068001;28;20477;-80
2021/08/23 07:02:55;;;;;;;5.00;2.70;;;;;;;20.88;nan;100915.22;5055492;28;20041;-79
2021/08/23 07:05:21;;;;;;;5.45;2.42;;;;;;;21.11;nan;100923.63;5054887;28;20028;-79
2021/08/23 07:07:47;;;;;;;5.30;2.55;;;;;;;21.55;nan;100922.06;5057818;28;20067;-79
2021/08/23 07:10:12;;;;;;;4.30;2.58;;;;;;;21.87;nan;100927.47;5066491;28;20036;-80
2021/08/23 07:12:42;;;;;;;4.75;2.00;;;;;;;22.16;nan;100930.56;5059635;28;20029;-77
2021/08/23 07:15:09;;;;;;;3.65;2.10;;;;;;;22.59;nan;100925.28;5071663;28;20093;-80
2021/08/23 07:17:34;;;;;;;3.40;1.95;;;;;;;22.62;nan;100930.25;5055693;28;20523;-77
2021/08/23 07:20:00;;;;;;;7.57;2.58;;;;;;;22.99;nan;100924.09;5072478;28;20056;-79
2021/08/23 07:22:26;;;;;;;4.85;2.33;;;;;;;22.98;nan;100928.66;5056359;28;20321;-77
2021/08/23 07:24:51;;;;;;;6.88;3.03;;;;;;;23.29;nan;100937.66;5069552;28;20037;-77
2021/08/23 07:27:17;;;;;;;4.50;2.50;;;;;;;23.40;nan;100930.66;5058905;28;20032;-77
2021/08/23 07:29:42;;;;;;;4.63;2.20;;;;;;;23.15;nan;100922.69;5073592;28;20392;-77
2021/08/23 07:32:09;;;;;;;3.95;2.20;;;;;;;23.31;nan;100932.84;5072405;28;20507;-77
2021/08/23 07:34:35;;;;;;;7.43;3.22;;;;;;;23.16;nan;100925.13;5061880;28;20063;-77
2021/08/23 07:37:00;;;;;;;6.63;3.35;;;;;;;22.78;nan;100928.00;5058730;28;20332;-80
2021/08/23 07:39:25;;;;;;;5.07;3.00;;;;;;;22.37;nan;100935.63;5056378;28;20489;-77
2021/08/23 07:41:51;;;;;;;4.10;2.53;;;;;;;22.79;nan;100926.97;5057287;28;20072;-80
2021/08/23 07:44:16;;;;;;;5.53;3.08;;;;;;;22.63;nan;100922.97;5042460;28;20068;-79
2021/08/23 07:46:42;;;;;;;5.18;2.70;;;;;;;22.45;nan;100931.81;5043441;28;20033;-77
2021/08/23 07:49:07;;;;;;;4.63;3.30;;;;;;;22.96;nan;100932.59;5047789;28;20041;-77
2021/08/23 07:51:32;;;;;;;6.13;3.20;;;;;;;22.43;nan;100923.16;5060723;28;20037;-77
2021/08/23 07:53:58;;;;;;;4.63;2.75;;;;;;;21.81;nan;100933.72;5038813;28;20033;-77
2021/08/23 07:56:23;;;;;;;4.85;2.90;;;;;;;21.93;nan;100940.06;5050879;28;20098;-77
2021/08/23 07:58:48;;;;;;;6.07;3.33;;;;;;;21.98;nan;100934.84;5066343;28;20385;-78
2021/08/23 08:01:14;;;;;;;5.22;3.40;;;;;;;22.61;nan;100938.53;5060058;28;20040;-78
2021/08/23 08:03:39;;;;;;;4.25;2.70;;;;;;;22.48;nan;100940.31;5056872;28;20191;-78
2021/08/23 08:06:05;;;;;;;4.88;3.00;;;;;;;22.16;nan;100936.78;5055889;28;20044;-78
2021/08/23 08:08:30;;;;;;;5.18;3.25;;;;;;;21.47;nan;100941.13;5057015;28;20029;-77
2021/08/23 08:10:57;;;;;;;5.90;2.90;;;;;;;20.83;nan;100947.28;5069181;28;20035;-77
2021/08/23 08:13:23;;;;;;;5.13;3.50;;;;;;;20.68;nan;100942.94;5062580;28;20543;-76
2021/08/23 08:15:48;;;;;;;6.35;3.42;;;;;;;20.50;nan;100948.94;5061455;28;20047;-77
2021/08/23 08:18:13;;;;;;;4.75;3.38;;;;;;;20.37;nan;100941.69;5050006;28;20036;-78
2021/08/23 08:20:39;;;;;;;6.90;4.20;;;;;;;20.32;nan;100944.16;5064618;28;20448;-77
2021/08/23 08:23:04;;;;;;;6.28;4.00;;;;;;;20.31;nan;100947.09;5051119;28;20037;-78
2021/08/23 08:25:30;;;;;;;6.30;3.90;;;;;;;19.99;nan;100946.00;5052652;28;20028;-77
2021/08/23 08:27:55;;;;;;;5.45;3.55;;;;;;;19.90;nan;100953.41;5065142;28;20032;-77
2021/08/23 08:30:21;;;;;;;4.97;3.28;;;;;;;19.91;nan;100952.38;5046595;28;20096;-77
2021/08/23 08:32:46;;;;;;;7.97;5.05;;;;;;;19.80;nan;100950.28;5065292;28;20310;-77
2021/08/23 08:35:11;;;;;;;9.00;4.75;;;;;;;19.77;nan;100956.88;5060978;28;20037;-77
2021/08/23 08:37:38;;;;;;;6.93;4.30;;;;;;;19.84;nan;100959.59;5051539;28;20036;-77
2021/08/23 08:40:05;;;;;;;5.05;3.45;;;;;;;19.63;nan;100966.69;5062274;28;20040;-77
2021/08/23 08:42:30;;;;;;;7.15;4.72;;;;;;;19.57;nan;100964.00;5062584;28;20075;-77
2021/08/23 08:44:55;;;;;;;6.03;4.55;;;;;;;19.38;nan;100968.22;5068249;28;20032;-77
2021/08/23 08:47:21;;;;;;;6.03;4.55;;;;;;;19.54;nan;100973.25;5056349;28;20044;-77
2021/08/23 08:49:47;;;;;;;9.13;5.15;;;;;;;19.60;nan;100972.47;5048797;28;20041;-77
2021/08/23 08:52:14;;;;;;;6.60;5.13;;;;;;;19.61;nan;100974.13;5050239;28;20036;-77
2021/08/23 08:54:41;;;;;;;6.00;4.43;;;;;;;19.49;nan;100979.22;5067937;28;20039;-77
2021/08/23 08:57:06;;;;;;;7.32;4.88;;;;;;;19.51;nan;100974.50;5064824;28;20032;-77
2021/08/23 08:59:35;;;;;;;8.82;5.32;;;;;;;19.44;nan;100975.50;5045860;28;20038;-77
2021/08/23 09:02:01;;;;;;;5.32;4.38;;;;;;;19.50;nan;100980.06;5060842;28;20104;-77
2021/08/23 09:04:29;;;;;;;6.28;4.10;;;;;;;19.57;nan;100977.41;5047578;28;20066;-77
2021/08/23 09:06:57;;;;;;;6.05;4.00;;;;;;;19.68;nan;100979.56;5058780;28;20131;-77
2021/08/23 09:09:25;;;;;;;6.57;5.15;;;;;;;19.54;nan;100984.00;5046309;28;20025;-77
2021/08/23 09:12:16;;;;;;;6.90;4.70;;;;;;;19.75;nan;100982.25;5068939;28;20392;-77
2021/08/23 09:14:52;;;;;;;;;;;;;;;19.85;nan;100988.06;5064330;28;20120;-77
2021/08/23 09:17:21;;;;;;;6.40;4.63;;;;;;;19.88;nan;100985.00;5071033;28;19923;-77
2021/08/23 09:20:04;;;;;;;5.28;4.78;;;;;;;19.98;nan;100987.28;5055593;28;20063;-78
2021/08/23 09:22:29;;;;;;;6.82;4.63;;;;;;;20.23;nan;100987.53;5050704;28;20039;-77
2021/08/23 09:24:55;;;;;;;6.82;5.22;;;;;;;20.23;nan;100990.22;5069469;28;20028;-78
2021/08/23 09:27:21;;;;;;;5.47;4.00;;;;;;;20.32;nan;100991.69;5060097;28;20891;-77
2021/08/23 09:29:48;;;;;;;7.40;5.10;;;;;;;20.53;nan;100990.69;5067286;28;20029;-77
2021/08/23 09:32:18;;;;;;;4.88;4.00;;;;;;;20.60;nan;100993.41;5062024;28;20516;-78
2021/08/23 09:34:45;;;;;;;4.45;4.00;;;;;;;20.85;nan;100999.78;5061389;28;20037;-77
2021/08/23 09:37:19;;;;;;;5.57;4.70;;;;;;;20.80;nan;100996.91;5060101;28;20037;-78
2021/08/23 09:39:44;;;;;;;6.45;4.65;;;;;;;20.73;nan;101002.28;5046949;28;20037;-77
2021/08/23 09:42:12;;;;;;;6.00;4.97;;;;;;;21.10;nan;100997.28;5060441;28;20480;-78
2021/08/23 09:44:39;;;;;;;4.35;3.85;;;;;;;21.28;nan;100999.31;5047538;28;20041;-77
2021/08/23 09:47:05;;;;;;;4.28;3.65;;;;;;;21.26;nan;101004.09;5055214;28;20041;-77
2021/08/23 09:49:39;;;;;;;6.35;3.97;;;;;;;21.31;nan;101001.59;5052343;28;20068;-77
2021/08/23 09:52:06;;;;;;;4.18;3.60;;;;;;;21.52;nan;101002.38;5052101;28;20045;-78
2021/08/23 09:54:32;;;;;;;5.05;4.22;;;;;;;21.58;nan;101004.22;5057380;28;20110;-78
2021/08/23 09:56:58;;;;;;;5.43;3.70;;;;;;;21.63;nan;100999.03;5043717;28;20331;-77
2021/08/23 09:59:26;;;;;;;6.90;4.28;;;;;;;21.73;nan;100998.56;5041510;28;20569;-78
2021/08/23 10:01:53;;;;;;;6.05;4.50;;;;;;;21.51;nan;100998.84;5051505;28;20033;-78
2021/08/23 10:04:19;;;;;;;4.75;4.25;;;;;;;21.54;nan;101002.97;5058770;28;20059;-77
2021/08/23 10:06:48;;;;;;;7.45;4.55;;;;;;;21.60;nan;101007.53;5061990;28;20086;-77
2021/08/23 10:09:19;;;;;;;5.20;4.53;;;;;;;21.82;nan;101006.19;5042582;28;20120;-78
2021/08/23 10:11:45;;;;;;;6.40;5.05;;;;;;;22.03;nan;101015.00;5040440;28;20125;-78
2021/08/23 10:14:10;;;;;;;6.20;4.30;;;;;;;22.07;nan;101008.13;5051354;28;20123;-77
2021/08/23 10:16:35;;;;;;;5.07;3.95;;;;;;;22.08;nan;101011.66;5060128;28;20064;-77
2021/08/23 10:19:02;;;;;;;6.07;4.55;;;;;;;22.11;nan;101019.28;5056285;28;20184;-77
2021/08/23 10:21:28;;;;;;;4.45;3.50;;;;;;;21.92;nan;101000.31;5054068;28;20797;-77
2021/08/23 10:23:55;;;;;;;4.93;3.22;;;;;;;21.97;nan;101003.19;5044353;28;20467;-78
2021/08/23 10:26:21;;;;;;;5.45;3.58;;;;;;;22.26;nan;101004.53;5050339;28;20115;-78
2021/08/23 10:28:49;;;;;;;4.68;3.60;;;;;;;22.50;nan;101012.00;5053394;28;20036;-77
2021/08/23 10:31:17;;;;;;;5.00;3.60;;;;;;;22.63;nan;101012.75;5046136;28;20037;-79
2021/08/23 10:33:44;;;;;;;4.68;3.30;;;;;;;22.76;nan;101008.28;5055667;28;20119;-78
2021/08/23 10:36:12;;;;;;;3.95;3.28;;;;;;;22.97;nan;101007.88;5057126;28;20434;-78
2021/08/23 10:38:39;;;;;;;4.03;3.58;;;;;;;23.08;nan;101011.75;5056548;28;20531;-78
2021/08/23 10:41:15;;;;;;;6.47;3.60;;;;;;;23.16;nan;101005.25;5064424;28;20140;-77
2021/08/23 10:43:50;;;;;;;5.53;4.03;;;;;;;23.06;nan;101001.19;5042694;28;20033;-79
2021/08/23 10:46:26;;;;;;;5.25;3.63;;;;;;;22.97;nan;101007.88;5049562;28;20064;-78
2021/08/23 10:48:53;;;;;;;4.22;3.17;;;;;;;23.03;nan;101004.34;5042286;28;20516;-78
2021/08/23 10:51:36;;;;;;;5.53;3.67;;;;;;;23.00;nan;100996.69;5059020;28;20033;-77
2021/08/23 10:54:08;;;;;;;5.88;3.83;;;;;;;22.95;nan;100992.97;5057514;28;20029;-78
2021/08/23 10:56:39;;;;;;;4.53;3.40;;;;;;;22.74;nan;100995.03;5064457;28;20452;-77
2021/08/23 10:59:16;;;;;;;4.53;3.20;;;;;;;22.79;nan;100983.59;5045338;28;20127;-77
2021/08/23 11:01:53;;;;;;;5.05;3.22;;;;;;;22.85;nan;100980.81;5041928;28;20053;-78
2021/08/23 11:04:29;;;;;;;6.97;3.63;;;;;;;22.87;nan;100989.50;5052173;28;20049;-77
2021/08/23 11:06:54;;;;;;;4.97;3.58;;;;;;;22.83;nan;100974.00;5051927;28;20045;-76
2021/08/23 11:09:30;;;;;;;6.25;3.92;;;;;;;22.67;nan;100973.53;5062409;28;20086;-77
2021/08/23 11:12:05;;;;;;;6.35;4.38;;;;;;;22.71;nan;100976.59;5064866;28;20141;-77
2021/08/23 11:14:45;;;;;;;4.57;3.33;;;;;;;22.50;nan;100977.81;5058941;28;20556;-77
2021/08/23 11:17:10;;;;;;;6.95;3.88;;;;;;;22.63;nan;100974.19;5056794;28;20492;-77
2021/08/23 11:19:40;;;;;;;6.10;4.18;;;;;;;22.52;nan;100969.50;5063195;28;20446;-77
2021/08/23 11:22:05;;;;;;;5.18;4.05;;;;;;;22.39;nan;100965.06;5044105;28;20044;-77
2021/08/23 11:24:33;;;;;;;5.45;4.13;;;;;;;22.47;nan;100970.16;5060483;28;20070;-77
2021/08/23 11:27:01;;;;;;;5.05;4.38;;;;;;;22.72;nan;100961.25;5063938;28;20032;-77
2021/08/23 11:29:27;;;;;;;7.05;4.78;;;;;;;23.01;nan;100963.28;5066437;28;20043;-77
2021/08/23 11:32:03;;;;;;;4.65;3.55;;;;;;;23.06;nan;100963.41;5045670;28;20530;-76
2021/08/23 11:34:29;;;;;;;4.50;3.30;;;;;;;23.38;nan;100965.97;5053547;28;20041;-76
2021/08/23 11:37:02;;;;;;;5.55;3.47;;;;;;;23.53;nan;100958.31;5056045;28;20051;-77
2021/08/23 11:39:29;;;;;;;6.32;3.53;;;;;;;23.71;nan;100954.75;5058544;28;20396;-77